sensor_id;sensor_type;location;lat;lon;timestamp;P1;durP1;ratioP1;P2;durP2;ratioP2
577;SDS011;275;48.492;9.214;2023-02-15T00:01:50;44.53;;;40.22;;
577;SDS011;275;48.492;9.214;2023-02-15T00:04:18;42.25;;;37.88;;
577;SDS011;275;48.492;9.214;2023-02-15T00:06:45;43.63;;;39.42;;
577;SDS011;275;48.492;9.214;2023-02-15T00:09:12;41.67;;;37.78;;
577;SDS011;275;48.492;9.214;2023-02-15T00:11:39;40.58;;;36.58;;
577;SDS011;275;48.492;9.214;2023-02-15T00:14:09;40.35;;;36.45;;
577;SDS011;275;48.492;9.214;2023-02-15T00:16:38;40.22;;;36.33;;
577;SDS011;275;48.492;9.214;2023-02-15T00:19:05;39.80;;;35.97;;
577;SDS011;275;48.492;9.214;2023-02-15T00:21:33;41.60;;;37.63;;
577;SDS011;275;48.492;9.214;2023-02-15T00:24:01;42.70;;;38.70;;
577;SDS011;275;48.492;9.214;2023-02-15T00:26:30;41.50;;;37.72;;
577;SDS011;275;48.492;9.214;2023-02-15T00:28:57;42.03;;;37.72;;
577;SDS011;275;48.492;9.214;2023-02-15T00:31:26;44.75;;;40.60;;
577;SDS011;275;48.492;9.214;2023-02-15T00:33:55;44.25;;;39.85;;
577;SDS011;275;48.492;9.214;2023-02-15T00:36:26;42.17;;;37.88;;
577;SDS011;275;48.492;9.214;2023-02-15T00:38:53;45.92;;;41.42;;
577;SDS011;275;48.492;9.214;2023-02-15T00:41:20;48.22;;;43.45;;
577;SDS011;275;48.492;9.214;2023-02-15T00:43:46;44.55;;;40.10;;
577;SDS011;275;48.492;9.214;2023-02-15T00:46:13;44.92;;;40.60;;
577;SDS011;275;48.492;9.214;2023-02-15T00:48:41;48.17;;;43.53;;
577;SDS011;275;48.492;9.214;2023-02-15T00:51:08;47.72;;;42.72;;
577;SDS011;275;48.492;9.214;2023-02-15T00:53:35;44.28;;;39.67;;
577;SDS011;275;48.492;9.214;2023-02-15T00:56:02;43.67;;;39.38;;
577;SDS011;275;48.492;9.214;2023-02-15T00:58:29;46.08;;;41.67;;
577;SDS011;275;48.492;9.214;2023-02-15T01:01:01;42.58;;;38.17;;
577;SDS011;275;48.492;9.214;2023-02-15T01:03:30;41.95;;;38.17;;
577;SDS011;275;48.492;9.214;2023-02-15T01:05:58;40.83;;;36.72;;
577;SDS011;275;48.492;9.214;2023-02-15T01:08:25;42.28;;;38.17;;
577;SDS011;275;48.492;9.214;2023-02-15T01:10:52;42.60;;;38.65;;
577;SDS011;275;48.492;9.214;2023-02-15T01:13:19;41.90;;;38.03;;
577;SDS011;275;48.492;9.214;2023-02-15T01:15:51;40.78;;;37.22;;
577;SDS011;275;48.492;9.214;2023-02-15T01:18:20;41.50;;;37.22;;
577;SDS011;275;48.492;9.214;2023-02-15T01:20:47;40.28;;;36.53;;
577;SDS011;275;48.492;9.214;2023-02-15T01:23:16;43.22;;;39.17;;
577;SDS011;275;48.492;9.214;2023-02-15T01:25:42;42.63;;;38.20;;
577;SDS011;275;48.492;9.214;2023-02-15T01:28:09;39.78;;;36.08;;
577;SDS011;275;48.492;9.214;2023-02-15T01:30:36;39.90;;;36.08;;
577;SDS011;275;48.492;9.214;2023-02-15T01:33:03;39.85;;;36.05;;
577;SDS011;275;48.492;9.214;2023-02-15T01:35:30;39.50;;;35.70;;
577;SDS011;275;48.492;9.214;2023-02-15T01:37:57;41.45;;;37.45;;
577;SDS011;275;48.492;9.214;2023-02-15T01:40:25;41.80;;;37.83;;
577;SDS011;275;48.492;9.214;2023-02-15T01:42:52;40.05;;;36.05;;
577;SDS011;275;48.492;9.214;2023-02-15T01:45:22;41.33;;;37.08;;
577;SDS011;275;48.492;9.214;2023-02-15T01:47:52;41.50;;;37.50;;
577;SDS011;275;48.492;9.214;2023-02-15T01:50:25;40.30;;;36.58;;
577;SDS011;275;48.492;9.214;2023-02-15T01:52:57;42.03;;;38.03;;
577;SDS011;275;48.492;9.214;2023-02-15T01:55:30;40.15;;;36.25;;
577;SDS011;275;48.492;9.214;2023-02-15T01:57:59;40.72;;;36.78;;
577;SDS011;275;48.492;9.214;2023-02-15T02:00:26;42.78;;;38.38;;
577;SDS011;275;48.492;9.214;2023-02-15T02:02:54;43.13;;;38.80;;
577;SDS011;275;48.492;9.214;2023-02-15T02:05:22;41.75;;;37.60;;
577;SDS011;275;48.492;9.214;2023-02-15T02:07:50;45.33;;;40.83;;
577;SDS011;275;48.492;9.214;2023-02-15T02:10:20;42.80;;;38.65;;
577;SDS011;275;48.492;9.214;2023-02-15T02:12:50;43.30;;;39.38;;
577;SDS011;275;48.492;9.214;2023-02-15T02:15:20;43.33;;;39.00;;
577;SDS011;275;48.492;9.214;2023-02-15T02:17:57;43.03;;;38.55;;
577;SDS011;275;48.492;9.214;2023-02-15T02:20:43;44.20;;;39.85;;
577;SDS011;275;48.492;9.214;2023-02-15T02:23:29;42.83;;;38.72;;
577;SDS011;275;48.492;9.214;2023-02-15T02:35:45;40.97;;;37.28;;
577;SDS011;275;48.492;9.214;2023-02-15T02:38:20;43.67;;;39.45;;
577;SDS011;275;48.492;9.214;2023-02-15T02:40:55;41.47;;;37.35;;
577;SDS011;275;48.492;9.214;2023-02-15T02:43:33;40.88;;;36.80;;
577;SDS011;275;48.492;9.214;2023-02-15T02:46:05;42.90;;;39.00;;
577;SDS011;275;48.492;9.214;2023-02-15T02:48:41;39.55;;;35.90;;
577;SDS011;275;48.492;9.214;2023-02-15T02:51:08;38.83;;;35.10;;
577;SDS011;275;48.492;9.214;2023-02-15T02:53:35;39.63;;;35.67;;
577;SDS011;275;48.492;9.214;2023-02-15T02:56:03;39.10;;;35.45;;
577;SDS011;275;48.492;9.214;2023-02-15T02:58:36;43.72;;;39.42;;
577;SDS011;275;48.492;9.214;2023-02-15T03:01:09;42.13;;;37.83;;
577;SDS011;275;48.492;9.214;2023-02-15T03:03:42;41.50;;;37.58;;
577;SDS011;275;48.492;9.214;2023-02-15T03:06:11;41.33;;;37.33;;
577;SDS011;275;48.492;9.214;2023-02-15T03:08:43;41.90;;;37.70;;
577;SDS011;275;48.492;9.214;2023-02-15T03:11:12;44.30;;;39.50;;
577;SDS011;275;48.492;9.214;2023-02-15T03:13:39;40.97;;;37.10;;
577;SDS011;275;48.492;9.214;2023-02-15T03:16:07;43.85;;;39.65;;
577;SDS011;275;48.492;9.214;2023-02-15T03:18:57;45.35;;;40.95;;
577;SDS011;275;48.492;9.214;2023-02-15T03:21:30;42.83;;;38.83;;
577;SDS011;275;48.492;9.214;2023-02-15T03:24:01;43.10;;;38.90;;
577;SDS011;275;48.492;9.214;2023-02-15T03:26:32;39.53;;;35.67;;
577;SDS011;275;48.492;9.214;2023-02-15T03:29:02;41.05;;;36.88;;
577;SDS011;275;48.492;9.214;2023-02-15T03:31:31;43.70;;;39.58;;
577;SDS011;275;48.492;9.214;2023-02-15T03:34:03;39.92;;;35.97;;
577;SDS011;275;48.492;9.214;2023-02-15T03:36:33;43.75;;;39.55;;
577;SDS011;275;48.492;9.214;2023-02-15T03:39:07;43.33;;;39.08;;
577;SDS011;275;48.492;9.214;2023-02-15T03:41:39;40.72;;;36.80;;
577;SDS011;275;48.492;9.214;2023-02-15T03:44:13;41.17;;;37.17;;
577;SDS011;275;48.492;9.214;2023-02-15T03:46:43;38.67;;;34.95;;
577;SDS011;275;48.492;9.214;2023-02-15T03:49:15;38.97;;;35.25;;
577;SDS011;275;48.492;9.214;2023-02-15T03:51:48;38.95;;;34.88;;
577;SDS011;275;48.492;9.214;2023-02-15T03:54:17;38.13;;;34.55;;
577;SDS011;275;48.492;9.214;2023-02-15T03:57:00;34.10;;;30.77;;
577;SDS011;275;48.492;9.214;2023-02-15T03:59:42;33.50;;;30.40;;
577;SDS011;275;48.492;9.214;2023-02-15T04:02:26;31.60;;;28.60;;
577;SDS011;275;48.492;9.214;2023-02-15T04:05:01;30.48;;;27.33;;
577;SDS011;275;48.492;9.214;2023-02-15T04:07:28;31.25;;;28.30;;
577;SDS011;275;48.492;9.214;2023-02-15T04:09:55;32.20;;;29.15;;
577;SDS011;275;48.492;9.214;2023-02-15T04:12:39;37.63;;;33.83;;
577;SDS011;275;48.492;9.214;2023-02-15T04:15:06;37.60;;;34.08;;
577;SDS011;275;48.492;9.214;2023-02-15T04:17:52;38.83;;;34.92;;
577;SDS011;275;48.492;9.214;2023-02-15T04:20:20;36.95;;;33.13;;
577;SDS011;275;48.492;9.214;2023-02-15T04:23:05;38.70;;;34.35;;
577;SDS011;275;48.492;9.214;2023-02-15T04:25:49;45.58;;;41.08;;
577;SDS011;275;48.492;9.214;2023-02-15T04:28:16;43.10;;;39.00;;
577;SDS011;275;48.492;9.214;2023-02-15T04:30:43;46.20;;;41.45;;
577;SDS011;275;48.492;9.214;2023-02-15T04:33:10;47.38;;;42.80;;
577;SDS011;275;48.492;9.214;2023-02-15T04:35:38;47.00;;;42.30;;
577;SDS011;275;48.492;9.214;2023-02-15T04:38:05;48.55;;;43.83;;
577;SDS011;275;48.492;9.214;2023-02-15T04:40:31;49.95;;;42.65;;
577;SDS011;275;48.492;9.214;2023-02-15T04:42:58;47.30;;;42.65;;
577;SDS011;275;48.492;9.214;2023-02-15T04:45:25;45.03;;;40.63;;
577;SDS011;275;48.492;9.214;2023-02-15T04:47:52;46.10;;;41.65;;
577;SDS011;275;48.492;9.214;2023-02-15T04:50:18;42.38;;;38.13;;
577;SDS011;275;48.492;9.214;2023-02-15T04:52:47;44.15;;;39.70;;
577;SDS011;275;48.492;9.214;2023-02-15T04:55:14;42.75;;;38.70;;
577;SDS011;275;48.492;9.214;2023-02-15T04:57:41;46.05;;;41.55;;
577;SDS011;275;48.492;9.214;2023-02-15T05:00:08;44.90;;;40.45;;
577;SDS011;275;48.492;9.214;2023-02-15T05:02:35;43.60;;;39.40;;
577;SDS011;275;48.492;9.214;2023-02-15T05:05:03;45.42;;;41.20;;
577;SDS011;275;48.492;9.214;2023-02-15T05:07:30;42.03;;;37.97;;
577;SDS011;275;48.492;9.214;2023-02-15T05:09:58;43.10;;;39.03;;
577;SDS011;275;48.492;9.214;2023-02-15T05:12:24;42.28;;;38.28;;
577;SDS011;275;48.492;9.214;2023-02-15T05:14:51;43.60;;;39.40;;
577;SDS011;275;48.492;9.214;2023-02-15T05:17:18;42.85;;;38.67;;
577;SDS011;275;48.492;9.214;2023-02-15T05:19:45;43.95;;;39.55;;
577;SDS011;275;48.492;9.214;2023-02-15T05:22:12;45.70;;;41.47;;
577;SDS011;275;48.492;9.214;2023-02-15T05:24:38;42.38;;;38.10;;
577;SDS011;275;48.492;9.214;2023-02-15T05:27:24;40.63;;;36.83;;
577;SDS011;275;48.492;9.214;2023-02-15T05:30:09;41.78;;;37.88;;
577;SDS011;275;48.492;9.214;2023-02-15T05:32:36;43.05;;;38.75;;
577;SDS011;275;48.492;9.214;2023-02-15T05:35:04;42.10;;;38.20;;
577;SDS011;275;48.492;9.214;2023-02-15T05:37:31;43.45;;;39.08;;
577;SDS011;275;48.492;9.214;2023-02-15T05:39:58;44.03;;;39.38;;
577;SDS011;275;48.492;9.214;2023-02-15T05:42:26;41.10;;;37.15;;
577;SDS011;275;48.492;9.214;2023-02-15T05:44:53;44.42;;;40.03;;
577;SDS011;275;48.492;9.214;2023-02-15T05:47:19;45.17;;;40.67;;
577;SDS011;275;48.492;9.214;2023-02-15T05:49:46;48.40;;;43.70;;
577;SDS011;275;48.492;9.214;2023-02-15T05:52:13;49.20;;;44.47;;
577;SDS011;275;48.492;9.214;2023-02-15T05:54:40;46.22;;;41.83;;
577;SDS011;275;48.492;9.214;2023-02-15T05:57:06;41.22;;;36.95;;
577;SDS011;275;48.492;9.214;2023-02-15T05:59:34;40.83;;;36.70;;
577;SDS011;275;48.492;9.214;2023-02-15T06:02:01;44.65;;;40.15;;
577;SDS011;275;48.492;9.214;2023-02-15T06:04:28;41.50;;;37.50;;
577;SDS011;275;48.492;9.214;2023-02-15T06:06:55;43.80;;;39.60;;
577;SDS011;275;48.492;9.214;2023-02-15T06:09:22;39.70;;;35.75;;
577;SDS011;275;48.492;9.214;2023-02-15T06:11:48;41.78;;;37.63;;
577;SDS011;275;48.492;9.214;2023-02-15T06:14:15;40.55;;;36.63;;
577;SDS011;275;48.492;9.214;2023-02-15T06:16:44;42.60;;;38.65;;
577;SDS011;275;48.492;9.214;2023-02-15T06:19:10;41.60;;;37.45;;
577;SDS011;275;48.492;9.214;2023-02-15T06:21:37;40.50;;;36.63;;
577;SDS011;275;48.492;9.214;2023-02-15T06:24:04;41.42;;;37.25;;
577;SDS011;275;48.492;9.214;2023-02-15T06:26:31;39.15;;;35.38;;
577;SDS011;275;48.492;9.214;2023-02-15T06:28:58;38.75;;;34.92;;
577;SDS011;275;48.492;9.214;2023-02-15T06:31:25;38.67;;;34.88;;
577;SDS011;275;48.492;9.214;2023-02-15T06:33:53;39.83;;;36.00;;
577;SDS011;275;48.492;9.214;2023-02-15T06:36:25;37.83;;;34.13;;
577;SDS011;275;48.492;9.214;2023-02-15T06:38:52;37.10;;;33.40;;
577;SDS011;275;48.492;9.214;2023-02-15T06:41:19;39.58;;;35.58;;
577;SDS011;275;48.492;9.214;2023-02-15T06:43:46;38.17;;;34.30;;
577;SDS011;275;48.492;9.214;2023-02-15T06:46:13;38.80;;;34.70;;
577;SDS011;275;48.492;9.214;2023-02-15T06:48:39;38.05;;;34.35;;
577;SDS011;275;48.492;9.214;2023-02-15T06:51:08;51.65;;;46.75;;
577;SDS011;275;48.492;9.214;2023-02-15T06:53:35;55.45;;;50.67;;
577;SDS011;275;48.492;9.214;2023-02-15T06:56:01;51.67;;;46.58;;
577;SDS011;275;48.492;9.214;2023-02-15T06:58:31;55.22;;;50.60;;
577;SDS011;275;48.492;9.214;2023-02-15T07:00:58;55.47;;;50.70;;
577;SDS011;275;48.492;9.214;2023-02-15T07:03:25;48.50;;;44.10;;
577;SDS011;275;48.492;9.214;2023-02-15T07:05:53;45.25;;;41.05;;
577;SDS011;275;48.492;9.214;2023-02-15T07:08:22;40.65;;;36.45;;
577;SDS011;275;48.492;9.214;2023-02-15T07:10:49;39.97;;;36.15;;
577;SDS011;275;48.492;9.214;2023-02-15T07:13:16;37.20;;;33.88;;
577;SDS011;275;48.492;9.214;2023-02-15T07:15:42;38.22;;;34.30;;
577;SDS011;275;48.492;9.214;2023-02-15T07:18:09;37.45;;;33.88;;
577;SDS011;275;48.492;9.214;2023-02-15T07:20:36;34.40;;;30.90;;
577;SDS011;275;48.492;9.214;2023-02-15T07:23:07;34.67;;;31.38;;
577;SDS011;275;48.492;9.214;2023-02-15T07:25:35;34.92;;;31.58;;
577;SDS011;275;48.492;9.214;2023-02-15T07:28:02;36.45;;;32.72;;
577;SDS011;275;48.492;9.214;2023-02-15T07:30:30;36.72;;;33.03;;
577;SDS011;275;48.492;9.214;2023-02-15T07:32:57;36.58;;;33.10;;
577;SDS011;275;48.492;9.214;2023-02-15T07:35:46;35.70;;;32.25;;
577;SDS011;275;48.492;9.214;2023-02-15T07:38:13;36.58;;;32.67;;
577;SDS011;275;48.492;9.214;2023-02-15T07:40:41;36.45;;;32.95;;
577;SDS011;275;48.492;9.214;2023-02-15T07:43:08;37.10;;;33.33;;
577;SDS011;275;48.492;9.214;2023-02-15T07:45:35;36.97;;;33.58;;
577;SDS011;275;48.492;9.214;2023-02-15T07:48:03;36.50;;;32.92;;
577;SDS011;275;48.492;9.214;2023-02-15T07:50:31;35.60;;;32.15;;
577;SDS011;275;48.492;9.214;2023-02-15T07:52:58;36.72;;;33.13;;
577;SDS011;275;48.492;9.214;2023-02-15T07:55:27;31.80;;;28.52;;
577;SDS011;275;48.492;9.214;2023-02-15T07:57:55;35.47;;;31.88;;
577;SDS011;275;48.492;9.214;2023-02-15T08:00:22;35.15;;;31.52;;
577;SDS011;275;48.492;9.214;2023-02-15T08:02:50;33.60;;;30.48;;
577;SDS011;275;48.492;9.214;2023-02-15T08:05:37;40.72;;;36.92;;
577;SDS011;275;48.492;9.214;2023-02-15T08:08:05;36.78;;;33.38;;
577;SDS011;275;48.492;9.214;2023-02-15T08:10:32;37.28;;;33.88;;
577;SDS011;275;48.492;9.214;2023-02-15T08:13:20;36.92;;;33.45;;
577;SDS011;275;48.492;9.214;2023-02-15T08:15:48;35.42;;;31.83;;
577;SDS011;275;48.492;9.214;2023-02-15T08:18:15;35.67;;;32.15;;
577;SDS011;275;48.492;9.214;2023-02-15T08:20:41;36.38;;;32.83;;
577;SDS011;275;48.492;9.214;2023-02-15T08:23:08;34.25;;;30.85;;
577;SDS011;275;48.492;9.214;2023-02-15T08:25:35;34.15;;;30.92;;
577;SDS011;275;48.492;9.214;2023-02-15T08:28:02;30.08;;;27.17;;
577;SDS011;275;48.492;9.214;2023-02-15T08:30:30;30.55;;;27.65;;
577;SDS011;275;48.492;9.214;2023-02-15T08:32:57;32.42;;;29.38;;
577;SDS011;275;48.492;9.214;2023-02-15T08:35:24;34.63;;;30.23;;
577;SDS011;275;48.492;9.214;2023-02-15T08:37:51;34.63;;;30.98;;
577;SDS011;275;48.492;9.214;2023-02-15T08:40:18;33.35;;;30.05;;
577;SDS011;275;48.492;9.214;2023-02-15T08:42:45;33.38;;;30.10;;
577;SDS011;275;48.492;9.214;2023-02-15T08:45:12;29.73;;;26.83;;
577;SDS011;275;48.492;9.214;2023-02-15T08:47:40;30.70;;;27.70;;
577;SDS011;275;48.492;9.214;2023-02-15T08:50:07;30.40;;;27.50;;
577;SDS011;275;48.492;9.214;2023-02-15T08:52:34;29.13;;;26.20;;
577;SDS011;275;48.492;9.214;2023-02-15T08:55:03;28.45;;;25.80;;
577;SDS011;275;48.492;9.214;2023-02-15T08:57:30;27.70;;;25.00;;
577;SDS011;275;48.492;9.214;2023-02-15T08:59:57;24.48;;;22.17;;
577;SDS011;275;48.492;9.214;2023-02-15T09:02:24;21.23;;;19.05;;
577;SDS011;275;48.492;9.214;2023-02-15T09:04:52;21.33;;;19.10;;
577;SDS011;275;48.492;9.214;2023-02-15T09:07:19;22.15;;;19.98;;
577;SDS011;275;48.492;9.214;2023-02-15T09:09:45;21.52;;;19.60;;
577;SDS011;275;48.492;9.214;2023-02-15T09:12:12;22.95;;;20.60;;
577;SDS011;275;48.492;9.214;2023-02-15T09:14:39;22.10;;;19.85;;
577;SDS011;275;48.492;9.214;2023-02-15T09:17:06;22.00;;;20.00;;
577;SDS011;275;48.492;9.214;2023-02-15T09:19:32;23.65;;;21.30;;
577;SDS011;275;48.492;9.214;2023-02-15T09:22:01;23.27;;;21.17;;
577;SDS011;275;48.492;9.214;2023-02-15T09:24:27;25.08;;;22.50;;
577;SDS011;275;48.492;9.214;2023-02-15T09:26:58;29.33;;;23.17;;
577;SDS011;275;48.492;9.214;2023-02-15T09:29:25;23.92;;;21.70;;
577;SDS011;275;48.492;9.214;2023-02-15T09:31:52;23.98;;;21.50;;
577;SDS011;275;48.492;9.214;2023-02-15T09:34:19;25.02;;;22.63;;
577;SDS011;275;48.492;9.214;2023-02-15T09:36:48;24.95;;;22.38;;
577;SDS011;275;48.492;9.214;2023-02-15T09:39:18;24.92;;;21.50;;
577;SDS011;275;48.492;9.214;2023-02-15T09:48:03;22.10;;;19.90;;
577;SDS011;275;48.492;9.214;2023-02-15T09:50:50;22.17;;;19.98;;
577;SDS011;275;48.492;9.214;2023-02-15T09:53:29;22.50;;;20.00;;
577;SDS011;275;48.492;9.214;2023-02-15T09:56:09;22.65;;;19.63;;
577;SDS011;275;48.492;9.214;2023-02-15T09:58:42;21.55;;;19.48;;
577;SDS011;275;48.492;9.214;2023-02-15T10:01:18;22.00;;;19.80;;
577;SDS011;275;48.492;9.214;2023-02-15T10:04:00;21.63;;;19.52;;
577;SDS011;275;48.492;9.214;2023-02-15T10:06:42;21.90;;;19.63;;
577;SDS011;275;48.492;9.214;2023-02-15T10:09:17;23.30;;;20.95;;
577;SDS011;275;48.492;9.214;2023-02-15T10:12:01;23.65;;;21.30;;
577;SDS011;275;48.492;9.214;2023-02-15T10:14:45;21.17;;;18.98;;
577;SDS011;275;48.492;9.214;2023-02-15T10:17:26;21.92;;;19.60;;
577;SDS011;275;48.492;9.214;2023-02-15T10:20:05;22.00;;;18.35;;
577;SDS011;275;48.492;9.214;2023-02-15T10:22:46;22.10;;;18.95;;
577;SDS011;275;48.492;9.214;2023-02-15T10:25:27;22.67;;;19.92;;
577;SDS011;275;48.492;9.214;2023-02-15T10:28:01;22.23;;;20.05;;
577;SDS011;275;48.492;9.214;2023-02-15T10:30:32;21.08;;;19.10;;
577;SDS011;275;48.492;9.214;2023-02-15T10:33:09;23.92;;;20.70;;
577;SDS011;275;48.492;9.214;2023-02-15T10:35:43;24.25;;;19.90;;
577;SDS011;275;48.492;9.214;2023-02-15T10:38:19;21.60;;;19.40;;
577;SDS011;275;48.492;9.214;2023-02-15T10:40:53;21.83;;;19.45;;
577;SDS011;275;48.492;9.214;2023-02-15T10:43:36;21.35;;;19.17;;
577;SDS011;275;48.492;9.214;2023-02-15T10:46:18;19.77;;;17.77;;
577;SDS011;275;48.492;9.214;2023-02-15T10:49:03;18.05;;;16.05;;
577;SDS011;275;48.492;9.214;2023-02-15T10:51:44;24.27;;;16.75;;
577;SDS011;275;48.492;9.214;2023-02-15T10:54:22;22.55;;;17.23;;
577;SDS011;275;48.492;9.214;2023-02-15T10:57:01;23.52;;;19.23;;
577;SDS011;275;48.492;9.214;2023-02-15T10:59:41;21.77;;;19.48;;
577;SDS011;275;48.492;9.214;2023-02-15T11:02:19;22.25;;;19.80;;
577;SDS011;275;48.492;9.214;2023-02-15T11:04:53;23.98;;;19.52;;
577;SDS011;275;48.492;9.214;2023-02-15T11:07:26;22.98;;;18.60;;
577;SDS011;275;48.492;9.214;2023-02-15T11:10:00;21.88;;;18.73;;
577;SDS011;275;48.492;9.214;2023-02-15T11:12:40;21.52;;;19.23;;
577;SDS011;275;48.492;9.214;2023-02-15T11:15:15;20.73;;;16.42;;
577;SDS011;275;48.492;9.214;2023-02-15T11:17:47;20.60;;;17.08;;
577;SDS011;275;48.492;9.214;2023-02-15T11:20:18;20.50;;;16.80;;
577;SDS011;275;48.492;9.214;2023-02-15T11:22:51;18.67;;;16.30;;
577;SDS011;275;48.492;9.214;2023-02-15T11:25:20;17.40;;;15.60;;
577;SDS011;275;48.492;9.214;2023-02-15T11:27:51;20.15;;;18.15;;
577;SDS011;275;48.492;9.214;2023-02-15T11:30:21;19.02;;;16.40;;
577;SDS011;275;48.492;9.214;2023-02-15T11:32:50;23.85;;;19.30;;
577;SDS011;275;48.492;9.214;2023-02-15T11:35:20;18.75;;;16.38;;
577;SDS011;275;48.492;9.214;2023-02-15T11:37:54;19.67;;;17.67;;
577;SDS011;275;48.492;9.214;2023-02-15T11:40:25;19.25;;;17.45;;
577;SDS011;275;48.492;9.214;2023-02-15T11:42:56;17.70;;;16.10;;
577;SDS011;275;48.492;9.214;2023-02-15T11:45:28;19.58;;;17.48;;
577;SDS011;275;48.492;9.214;2023-02-15T11:47:56;20.02;;;17.98;;
577;SDS011;275;48.492;9.214;2023-02-15T11:50:25;17.90;;;16.20;;
577;SDS011;275;48.492;9.214;2023-02-15T11:52:55;19.30;;;17.40;;
577;SDS011;275;48.492;9.214;2023-02-15T11:55:24;21.65;;;19.15;;
577;SDS011;275;48.492;9.214;2023-02-15T11:57:54;20.90;;;18.80;;
577;SDS011;275;48.492;9.214;2023-02-15T12:00:27;20.73;;;16.30;;
577;SDS011;275;48.492;9.214;2023-02-15T12:03:02;18.05;;;16.15;;
577;SDS011;275;48.492;9.214;2023-02-15T12:05:35;17.15;;;15.55;;
577;SDS011;275;48.492;9.214;2023-02-15T12:08:09;17.38;;;15.65;;
577;SDS011;275;48.492;9.214;2023-02-15T12:10:43;21.75;;;17.05;;
577;SDS011;275;48.492;9.214;2023-02-15T12:13:21;18.77;;;16.80;;
577;SDS011;275;48.492;9.214;2023-02-15T12:15:50;17.98;;;16.27;;
577;SDS011;275;48.492;9.214;2023-02-15T12:18:20;17.38;;;15.70;;
577;SDS011;275;48.492;9.214;2023-02-15T12:20:59;16.42;;;14.73;;
577;SDS011;275;48.492;9.214;2023-02-15T12:23:32;17.08;;;14.43;;
577;SDS011;275;48.492;9.214;2023-02-15T12:26:01;17.88;;;14.98;;
577;SDS011;275;48.492;9.214;2023-02-15T12:28:31;15.93;;;14.32;;
577;SDS011;275;48.492;9.214;2023-02-15T12:31:01;19.85;;;14.30;;
577;SDS011;275;48.492;9.214;2023-02-15T12:33:30;22.52;;;13.85;;
577;SDS011;275;48.492;9.214;2023-02-15T12:36:00;16.95;;;13.65;;
577;SDS011;275;48.492;9.214;2023-02-15T12:38:30;18.55;;;13.10;;
577;SDS011;275;48.492;9.214;2023-02-15T12:40:59;14.73;;;12.98;;
577;SDS011;275;48.492;9.214;2023-02-15T12:43:27;14.73;;;12.80;;
577;SDS011;275;48.492;9.214;2023-02-15T12:51:44;14.10;;;12.60;;
577;SDS011;275;48.492;9.214;2023-02-15T12:54:37;13.20;;;11.90;;
577;SDS011;275;48.492;9.214;2023-02-15T12:57:13;12.80;;;11.30;;
577;SDS011;275;48.492;9.214;2023-02-15T12:59:47;14.00;;;11.70;;
577;SDS011;275;48.492;9.214;2023-02-15T13:02:17;12.00;;;10.80;;
577;SDS011;275;48.492;9.214;2023-02-15T13:04:49;14.20;;;10.87;;
577;SDS011;275;48.492;9.214;2023-02-15T13:07:17;9.97;;;8.73;;
577;SDS011;275;48.492;9.214;2023-02-15T13:09:44;11.03;;;9.90;;
577;SDS011;275;48.492;9.214;2023-02-15T13:12:15;10.47;;;8.70;;
577;SDS011;275;48.492;9.214;2023-02-15T13:14:44;9.10;;;7.83;;
577;SDS011;275;48.492;9.214;2023-02-15T13:17:15;9.00;;;8.20;;
577;SDS011;275;48.492;9.214;2023-02-15T13:19:44;10.57;;;9.47;;
577;SDS011;275;48.492;9.214;2023-02-15T13:22:16;14.80;;;8.80;;
577;SDS011;275;48.492;9.214;2023-02-15T13:24:47;8.80;;;6.60;;
577;SDS011;275;48.492;9.214;2023-02-15T13:27:17;8.80;;;7.40;;
577;SDS011;275;48.492;9.214;2023-02-15T13:29:46;7.10;;;6.40;;
577;SDS011;275;48.492;9.214;2023-02-15T13:32:20;7.40;;;6.23;;
577;SDS011;275;48.492;9.214;2023-02-15T13:34:52;7.00;;;6.30;;
577;SDS011;275;48.492;9.214;2023-02-15T13:37:33;9.40;;;6.30;;
577;SDS011;275;48.492;9.214;2023-02-15T13:40:12;6.90;;;6.20;;
577;SDS011;275;48.492;9.214;2023-02-15T13:42:45;9.20;;;7.20;;
577;SDS011;275;48.492;9.214;2023-02-15T13:45:24;8.70;;;7.70;;
577;SDS011;275;48.492;9.214;2023-02-15T13:47:59;10.00;;;8.93;;
577;SDS011;275;48.492;9.214;2023-02-15T13:50:38;10.67;;;9.53;;
577;SDS011;275;48.492;9.214;2023-02-15T13:53:25;10.73;;;8.93;;
577;SDS011;275;48.492;9.214;2023-02-15T13:56:01;11.57;;;10.47;;
577;SDS011;275;48.492;9.214;2023-02-15T13:58:47;11.23;;;9.17;;
577;SDS011;275;48.492;9.214;2023-02-15T14:01:36;12.20;;;9.27;;
577;SDS011;275;48.492;9.214;2023-02-15T14:07:20;13.93;;;10.13;;
577;SDS011;275;48.492;9.214;2023-02-15T14:10:18;11.70;;;10.60;;
577;SDS011;275;48.492;9.214;2023-02-15T14:12:56;12.57;;;11.30;;
577;SDS011;275;48.492;9.214;2023-02-15T14:15:46;12.53;;;10.53;;
577;SDS011;275;48.492;9.214;2023-02-15T14:18:19;12.27;;;10.67;;
577;SDS011;275;48.492;9.214;2023-02-15T14:20:55;12.37;;;11.10;;
577;SDS011;275;48.492;9.214;2023-02-15T14:23:33;13.17;;;11.40;;
577;SDS011;275;48.492;9.214;2023-02-15T14:26:21;12.80;;;11.50;;
577;SDS011;275;48.492;9.214;2023-02-15T14:29:00;12.20;;;10.90;;
577;SDS011;275;48.492;9.214;2023-02-15T14:31:40;12.70;;;11.40;;
577;SDS011;275;48.492;9.214;2023-02-15T14:34:14;12.77;;;11.43;;
577;SDS011;275;48.492;9.214;2023-02-15T14:36:47;12.13;;;10.97;;
577;SDS011;275;48.492;9.214;2023-02-15T14:39:17;11.70;;;10.60;;
577;SDS011;275;48.492;9.214;2023-02-15T14:42:11;11.07;;;9.97;;
577;SDS011;275;48.492;9.214;2023-02-15T14:44:47;10.97;;;9.70;;
577;SDS011;275;48.492;9.214;2023-02-15T14:47:21;10.90;;;9.80;;
577;SDS011;275;48.492;9.214;2023-02-15T14:49:52;10.43;;;9.43;;
577;SDS011;275;48.492;9.214;2023-02-15T14:52:18;11.93;;;10.40;;
577;SDS011;275;48.492;9.214;2023-02-15T14:54:57;10.73;;;8.90;;
577;SDS011;275;48.492;9.214;2023-02-15T14:57:35;10.13;;;9.07;;
577;SDS011;275;48.492;9.214;2023-02-15T15:03:09;11.70;;;8.57;;
577;SDS011;275;48.492;9.214;2023-02-15T15:05:46;9.53;;;8.60;;
577;SDS011;275;48.492;9.214;2023-02-15T15:08:21;10.63;;;8.03;;
577;SDS011;275;48.492;9.214;2023-02-15T15:10:52;7.37;;;6.53;;
577;SDS011;275;48.492;9.214;2023-02-15T15:13:36;7.83;;;6.60;;
577;SDS011;275;48.492;9.214;2023-02-15T15:16:24;7.63;;;6.23;;
577;SDS011;275;48.492;9.214;2023-02-15T15:18:56;6.90;;;6.17;;
577;SDS011;275;48.492;9.214;2023-02-15T15:33:29;8.50;;;6.17;;
577;SDS011;275;48.492;9.214;2023-02-15T15:36:34;8.33;;;5.63;;
577;SDS011;275;48.492;9.214;2023-02-15T15:39:52;8.00;;;5.13;;
577;SDS011;275;48.492;9.214;2023-02-15T15:42:42;6.60;;;5.97;;
577;SDS011;275;48.492;9.214;2023-02-15T15:48:29;7.60;;;6.43;;
577;SDS011;275;48.492;9.214;2023-02-15T15:50:59;6.77;;;5.53;;
577;SDS011;275;48.492;9.214;2023-02-15T15:53:31;8.90;;;5.90;;
577;SDS011;275;48.492;9.214;2023-02-15T15:56:06;7.13;;;5.97;;
577;SDS011;275;48.492;9.214;2023-02-15T15:58:37;8.77;;;7.07;;
577;SDS011;275;48.492;9.214;2023-02-15T16:01:10;9.27;;;7.23;;
577;SDS011;275;48.492;9.214;2023-02-15T16:03:47;8.37;;;7.00;;
577;SDS011;275;48.492;9.214;2023-02-15T16:06:26;8.40;;;7.22;;
577;SDS011;275;48.492;9.214;2023-02-15T16:08:54;9.10;;;8.17;;
577;SDS011;275;48.492;9.214;2023-02-15T16:11:23;8.88;;;8.05;;
577;SDS011;275;48.492;9.214;2023-02-15T16:13:51;9.10;;;8.20;;
577;SDS011;275;48.492;9.214;2023-02-15T16:16:22;9.60;;;8.60;;
577;SDS011;275;48.492;9.214;2023-02-15T16:18:54;9.70;;;8.10;;
577;SDS011;275;48.492;9.214;2023-02-15T16:21:23;10.83;;;8.37;;
577;SDS011;275;48.492;9.214;2023-02-15T16:24:03;11.77;;;10.57;;
577;SDS011;275;48.492;9.214;2023-02-15T16:29:56;13.20;;;11.77;;
577;SDS011;275;48.492;9.214;2023-02-15T16:32:23;14.35;;;11.25;;
577;SDS011;275;48.492;9.214;2023-02-15T16:34:54;12.10;;;10.85;;